createdAt,value
2023-02-13T00:02:16.497Z,103112.28
2023-02-13T00:07:18.171Z,103111.13
2023-02-13T00:12:19.767Z,103094.56
2023-02-13T00:17:21.374Z,103103.63
2023-02-13T00:22:22.942Z,103097.56
2023-02-13T00:27:24.539Z,103098.25
2023-02-13T00:32:26.320Z,103099.69
2023-02-13T00:37:29.884Z,103091.34
2023-02-13T00:42:31.460Z,103089.91
2023-02-13T00:47:32.980Z,103091.00
2023-02-13T00:52:34.696Z,103076.59
2023-02-13T00:57:36.469Z,103090.53
2023-02-13T01:02:38.266Z,103084.22
2023-02-13T01:07:39.825Z,103072.66
2023-02-13T01:12:41.446Z,103068.13
2023-02-13T01:17:42.997Z,103063.94
2023-02-13T01:22:44.786Z,103056.56
2023-02-13T01:27:46.517Z,103061.13
2023-02-13T01:32:51.153Z,103066.69
2023-02-13T01:37:52.699Z,103066.22
2023-02-13T01:42:54.269Z,103059.66
2023-02-13T01:48:16.383Z,103053.97
2023-02-13T01:53:20.140Z,103058.50
2023-02-13T01:58:29.615Z,103051.34
2023-02-13T02:03:43.974Z,103059.56
2023-02-13T02:08:49.557Z,103054.56
2023-02-13T02:13:57.779Z,103055.88
2023-02-13T02:19:34.512Z,103064.69
2023-02-13T02:25:05.356Z,103068.13
2023-02-13T02:30:22.743Z,103059.56
2023-02-13T02:35:24.351Z,103065.63
2023-02-13T02:40:45.782Z,103065.50
2023-02-13T02:45:50.303Z,103060.66
2023-02-13T02:50:55.040Z,103058.97
2023-02-13T02:56:22.401Z,103060.00
2023-02-13T03:01:28.994Z,103056.47
2023-02-13T03:06:47.020Z,103063.47
2023-02-13T03:11:55.431Z,103061.81
2023-02-13T03:16:58.571Z,103066.56
2023-02-13T03:22:14.359Z,103070.13
2023-02-13T03:27:32.032Z,103066.09
2023-02-13T03:32:45.349Z,103067.84
2023-02-13T03:37:54.977Z,103065.59
2023-02-13T03:43:08.618Z,103063.44
2023-02-13T03:48:11.816Z,103065.66
2023-02-13T03:53:15.872Z,103061.97
2023-02-13T03:58:23.927Z,103061.63
2023-02-13T04:03:53.485Z,103061.31
2023-02-13T04:08:55.378Z,103059.06
2023-02-13T04:14:00.257Z,103066.28
2023-02-13T04:19:02.990Z,103066.47
2023-02-13T04:24:04.900Z,103066.59
2023-02-13T04:29:06.485Z,103065.84
2023-02-13T04:34:08.028Z,103063.63
2023-02-13T04:39:10.996Z,103063.91
2023-02-13T04:44:12.672Z,103067.41
2023-02-13T04:49:14.766Z,103066.66
2023-02-13T04:54:16.612Z,103058.06
2023-02-13T04:59:18.677Z,103058.88
2023-02-13T05:04:20.363Z,103046.50
2023-02-13T05:09:21.924Z,103052.75
2023-02-13T05:14:23.445Z,103044.00
2023-02-13T05:19:25.042Z,103056.97
2023-02-13T05:24:26.729Z,103060.75
2023-02-13T05:29:28.306Z,103058.38
2023-02-13T05:34:30.293Z,103063.38
2023-02-13T05:39:32.094Z,103064.22
2023-02-13T05:44:33.612Z,103063.25
2023-02-13T05:49:35.136Z,103059.66
2023-02-13T05:54:36.747Z,103064.41
2023-02-13T05:59:38.367Z,103065.50
2023-02-13T06:04:39.871Z,103063.66
2023-02-13T06:09:41.405Z,103069.47
2023-02-13T06:14:43.088Z,103073.13
2023-02-13T06:19:44.632Z,103069.13
2023-02-13T06:24:46.318Z,103075.63
2023-02-13T06:29:48.040Z,103076.16
2023-02-13T06:34:49.583Z,103070.03
2023-02-13T06:39:51.102Z,103070.41
2023-02-13T06:44:52.956Z,103062.34
2023-02-13T06:49:54.792Z,103067.53
2023-02-13T06:54:56.419Z,103065.59
2023-02-13T06:59:58.330Z,103065.16
2023-02-13T07:05:00.105Z,103065.41
2023-02-13T07:10:02.290Z,103065.25
2023-02-13T07:15:04.981Z,103060.50
2023-02-13T07:20:07.354Z,103071.28
2023-02-13T07:25:11.411Z,103065.69
2023-02-13T07:30:13.191Z,103073.28
2023-02-13T07:35:14.778Z,103063.47
2023-02-13T07:40:16.772Z,103073.00
2023-02-13T07:45:18.331Z,103078.03
2023-02-13T07:50:20.090Z,103068.06
2023-02-13T07:55:22.227Z,103071.22
2023-02-13T08:00:24.084Z,103072.53
2023-02-13T08:05:25.674Z,103075.31
2023-02-13T08:10:27.481Z,103079.78
2023-02-13T08:15:29.177Z,103089.59
2023-02-13T08:20:30.988Z,103088.91
2023-02-13T08:25:33.318Z,103086.47
2023-02-13T08:30:34.860Z,103100.47
2023-02-13T08:35:36.846Z,103100.06
2023-02-13T08:40:38.529Z,103095.63
2023-02-13T08:45:40.142Z,103099.53
2023-02-13T08:50:42.228Z,103096.53
2023-02-13T08:55:51.154Z,103108.47
2023-02-13T09:00:52.909Z,103104.22
2023-02-13T09:05:58.535Z,103103.75
2023-02-13T09:11:02.500Z,103097.31
2023-02-13T09:16:06.432Z,103098.59
2023-02-13T09:21:11.225Z,103108.84
2023-02-13T09:26:15.189Z,103105.13
2023-02-13T09:31:21.132Z,103100.66
2023-02-13T09:36:24.324Z,103110.66
2023-02-13T09:41:30.471Z,103097.13
2023-02-13T09:46:34.167Z,103100.97
2023-02-13T09:51:36.033Z,103098.47
2023-02-13T09:56:56.739Z,103092.50
2023-02-13T10:02:04.680Z,103099.00
2023-02-13T10:07:17.370Z,103100.47
2023-02-13T10:12:19.026Z,103096.91
2023-02-13T10:17:26.979Z,103093.72
2023-02-13T10:22:35.324Z,103086.41
2023-02-13T10:27:44.774Z,103095.28
2023-02-13T10:32:49.496Z,103108.72
2023-02-13T10:37:54.982Z,103093.09
2023-02-13T10:43:08.785Z,103084.22
2023-02-13T10:48:27.159Z,103099.41
2023-02-13T10:53:34.971Z,103089.00
2023-02-13T10:59:04.080Z,103090.69
2023-02-13T11:04:14.363Z,103079.63
2023-02-13T11:09:16.816Z,103067.00
2023-02-13T11:14:24.304Z,103068.47
2023-02-13T11:19:35.588Z,103053.44
2023-02-13T11:24:41.066Z,103046.00
2023-02-13T11:30:01.117Z,103045.03
2023-02-13T11:35:38.489Z,103043.66
2023-02-13T11:40:42.583Z,103033.38
2023-02-13T11:45:44.398Z,103021.00
2023-02-13T11:50:52.573Z,103020.19
2023-02-13T11:56:16.584Z,103016.13
2023-02-13T12:01:21.398Z,103002.19
2023-02-13T12:06:23.165Z,102995.75
2023-02-13T12:11:46.336Z,102994.25
2023-02-13T12:16:58.868Z,102992.00
2023-02-13T12:22:00.335Z,102996.56
2023-02-13T12:27:04.600Z,102982.63
2023-02-13T12:32:19.552Z,102973.50
2023-02-13T12:37:21.303Z,102971.44
2023-02-13T12:42:52.034Z,102967.25
2023-02-13T12:48:02.578Z,102958.22
2023-02-13T12:53:16.275Z,102954.34
2023-02-13T12:58:21.061Z,102944.78
2023-02-13T13:03:43.074Z,102930.84
2023-02-13T13:09:28.973Z,102937.63
2023-02-13T13:14:33.254Z,102935.00
2023-02-13T13:19:53.285Z,102926.06
2023-02-13T13:25:04.164Z,102916.97
2023-02-13T13:30:20.515Z,102919.72
2023-02-13T13:35:22.472Z,102915.31
2023-02-13T13:40:32.929Z,102917.81
2023-02-13T13:45:59.577Z,102912.53
2023-02-13T13:51:02.422Z,102905.72
2023-02-13T13:56:05.589Z,102900.78
2023-02-13T14:01:30.600Z,102896.16
2023-02-13T14:06:44.463Z,102894.72
2023-02-13T14:11:47.147Z,102894.50
2023-02-13T14:16:52.074Z,102889.81
2023-02-13T14:21:55.368Z,102886.13
2023-02-13T14:27:05.166Z,102883.44
2023-02-13T14:32:22.646Z,102875.19
2023-02-13T14:37:36.279Z,102869.47
2023-02-13T14:42:40.122Z,102875.88
2023-02-13T14:47:45.727Z,102867.38
2023-02-13T14:52:48.320Z,102870.75
2023-02-13T14:57:58.797Z,102870.09
2023-02-13T15:03:13.776Z,102864.72
2023-02-13T15:08:19.625Z,102868.25
2023-02-13T15:13:26.529Z,102864.66
2023-02-13T15:18:51.796Z,102855.50
2023-02-13T15:23:57.140Z,102853.94
2023-02-13T15:29:25.983Z,102852.50
2023-02-13T15:34:32.514Z,102856.22
2023-02-13T15:39:34.163Z,102854.78
2023-02-13T15:44:38.371Z,102846.41
2023-02-13T15:49:48.377Z,102846.19
2023-02-13T15:54:52.626Z,102847.13
2023-02-13T16:00:00.348Z,102843.34
2023-02-13T16:05:02.650Z,102837.16
2023-02-13T16:10:33.927Z,102840.84
2023-02-13T16:15:37.462Z,102836.25
2023-02-13T16:20:39.262Z,102842.59
2023-02-13T16:25:41.650Z,102843.63
2023-02-13T16:30:55.185Z,102851.38
2023-02-13T16:36:00.211Z,102839.19
2023-02-13T16:41:21.726Z,102840.69
2023-02-13T16:46:23.478Z,102846.41
2023-02-13T16:51:42.149Z,102851.13
2023-02-13T16:57:00.756Z,102856.25
2023-02-13T17:02:26.275Z,102854.00
2023-02-13T17:07:29.306Z,102864.34
2023-02-13T17:12:35.524Z,102872.53
2023-02-13T17:17:37.235Z,102872.69
2023-02-13T17:22:54.061Z,102865.19
2023-02-13T17:28:17.529Z,102870.94
2023-02-13T17:33:30.451Z,102868.94
2023-02-13T17:38:32.151Z,102874.06
2023-02-13T17:43:33.812Z,102872.63
2023-02-13T17:48:35.446Z,102867.19
2023-02-13T17:53:37.044Z,102866.84
2023-02-13T17:58:38.659Z,102871.25
2023-02-13T18:03:40.265Z,102876.53
2023-02-13T18:08:41.968Z,102880.25
2023-02-13T18:13:43.529Z,102877.63
2023-02-13T18:18:45.164Z,102875.94
2023-02-13T18:23:46.703Z,102875.66
2023-02-13T18:28:48.460Z,102883.31
2023-02-13T18:33:50.043Z,102878.53
2023-02-13T18:38:52.160Z,102885.13
2023-02-13T18:43:56.773Z,102881.59
2023-02-13T18:48:58.401Z,102877.63
2023-02-13T18:54:00.110Z,102885.50
2023-02-13T18:59:01.732Z,102881.31
2023-02-13T19:04:04.674Z,102889.41
2023-02-13T19:09:06.933Z,102893.75
2023-02-13T19:14:08.561Z,102888.88
2023-02-13T19:19:10.407Z,102887.06
2023-02-13T19:24:12.650Z,102893.75
2023-02-13T19:29:17.240Z,102904.22
2023-02-13T19:34:18.926Z,102905.88
2023-02-13T19:39:20.693Z,102908.72
2023-02-13T19:44:22.522Z,102906.34
2023-02-13T19:49:24.108Z,102905.47
2023-02-13T19:54:25.629Z,102907.34
2023-02-13T19:59:27.643Z,102905.00
2023-02-13T20:04:29.220Z,102901.66
2023-02-13T20:09:30.962Z,102904.06
2023-02-13T20:14:33.123Z,102900.34
2023-02-13T20:19:34.725Z,102894.84
2023-02-13T20:24:36.479Z,102904.66
2023-02-13T20:29:38.546Z,102901.13
2023-02-13T20:34:58.381Z,102899.78
2023-02-13T20:40:01.169Z,102904.38
2023-02-13T20:45:03.017Z,102902.72
2023-02-13T20:50:05.031Z,102895.06
2023-02-13T20:55:07.477Z,102901.25
2023-02-13T21:00:10.024Z,102901.97
2023-02-13T21:05:11.752Z,102898.50
2023-02-13T21:10:17.616Z,102894.00
2023-02-13T21:15:19.252Z,102905.91
2023-02-13T21:20:20.954Z,102905.06
2023-02-13T21:25:22.817Z,102903.28
2023-02-13T21:30:24.449Z,102896.56
2023-02-13T21:35:26.114Z,102887.88
2023-02-13T21:40:27.740Z,102886.25
2023-02-13T21:45:29.248Z,102887.00
2023-02-13T21:50:30.832Z,102886.06
2023-02-13T21:55:32.847Z,102882.31
2023-02-13T22:00:34.377Z,102882.88
2023-02-13T22:05:35.898Z,102883.72
2023-02-13T22:10:37.468Z,102880.69
2023-02-13T22:15:39.103Z,102873.28
2023-02-13T22:20:40.700Z,102882.16
2023-02-13T22:25:47.825Z,102883.19
2023-02-13T22:30:49.404Z,102874.53
2023-02-13T22:35:51.415Z,102876.00
2023-02-13T22:40:53.065Z,102879.34
2023-02-13T22:45:54.620Z,102878.38
2023-02-13T22:50:56.357Z,102882.78
2023-02-13T22:55:58.169Z,102878.25
2023-02-13T23:01:00.329Z,102875.59
2023-02-13T23:06:06.171Z,102881.13
2023-02-13T23:11:10.499Z,102883.06
2023-02-13T23:16:13.399Z,102880.66
2023-02-13T23:21:15.084Z,102880.69
2023-02-13T23:26:17.006Z,102883.22
2023-02-13T23:31:18.605Z,102882.19
2023-02-13T23:36:20.328Z,102885.53
2023-02-13T23:41:21.889Z,102895.75
2023-02-13T23:46:23.555Z,102898.91
2023-02-13T23:51:25.197Z,102904.13
2023-02-13T23:56:26.796Z,102894.53
